Time;durP1;ratioP1;P1;durP2;ratioP2;P2;SDS_P1;SDS_P2;PMS_P1;PMS_P2;Temp;Humidity;BMP_temperature;BMP_pressure;BME280_temperature;BME280_humidity;BME280_pressure;Samples;Min_cycle;Max_cycle;Signal;HPM_P1;HPM_P2
2021/04/22 00:00:58;;;;;;;4.28;3.88;;;;;;;0.84;95.24;93092.09;2086238;28;20070;-83
2021/04/22 00:01:59;;;;;;;4.80;4.25;;;;;;;0.86;96.35;93095.13;2084296;28;20123;-83
2021/04/22 00:02:59;;;;;;;4.32;3.92;;;;;;;0.92;96.01;93100.84;2081114;28;20033;-83
2021/04/22 00:04:00;;;;;;;4.30;3.63;;;;;;;0.88;95.65;93100.81;2081175;28;20030;-83
2021/04/22 00:05:09;;;;;;;4.07;3.78;;;;;;;0.80;95.80;93106.31;2081362;28;20029;-83
2021/04/22 00:06:10;;;;;;;4.10;3.65;;;;;;;0.76;95.82;93106.25;2085946;28;20028;-83
2021/04/22 00:07:10;;;;;;;4.18;3.80;;;;;;;0.80;96.12;93108.94;2087843;28;20071;-84
2021/04/22 00:08:11;;;;;;;4.38;4.07;;;;;;;0.75;96.55;93100.25;2097910;28;20076;-83
2021/04/22 00:09:12;;;;;;;4.80;4.35;;;;;;;0.79;96.55;93097.66;2097647;28;20055;-83
2021/04/22 00:10:14;;;;;;;4.38;3.97;;;;;;;0.85;96.49;93100.75;2081263;28;20450;-83
2021/04/22 00:11:14;;;;;;;3.95;3.65;;;;;;;0.75;95.95;93104.75;2081470;28;20516;-83
2021/04/22 00:12:15;;;;;;;4.30;3.90;;;;;;;0.79;96.20;93102.94;2085268;28;20029;-83
2021/04/22 00:13:22;;;;;;;3.85;3.53;;;;;;;0.73;96.36;93107.72;2081317;28;20036;-83
2021/04/22 00:14:23;;;;;;;4.22;3.85;;;;;;;0.75;96.34;93099.50;2073482;28;20038;-84
2021/04/22 00:15:23;;;;;;;4.15;3.85;;;;;;;0.77;96.73;93101.75;2080823;28;20261;-84
2021/04/22 00:16:24;;;;;;;5.22;4.07;;;;;;;0.75;96.24;93105.50;2085504;28;20025;-83
2021/04/22 00:17:24;;;;;;;4.05;3.75;;;;;;;0.71;96.07;93096.03;2071593;28;20026;-83
2021/04/22 00:18:25;;;;;;;4.28;3.88;;;;;;;0.72;96.10;93102.81;2072905;28;20079;-83
2021/04/22 00:19:25;;;;;;;4.38;3.97;;;;;;;0.71;95.72;93096.81;2077197;28;20025;-84
2021/04/22 00:20:27;;;;;;;4.47;4.10;;;;;;;0.63;95.70;93097.03;2088104;28;20262;-83
2021/04/22 00:21:27;;;;;;;4.38;3.97;;;;;;;0.65;96.05;93095.56;2079725;28;20049;-83
2021/04/22 00:22:27;;;;;;;4.18;3.85;;;;;;;0.68;96.22;93099.38;2087872;28;20029;-84
2021/04/22 00:23:28;;;;;;;4.50;4.10;;;;;;;0.66;95.56;93104.22;2088691;28;20029;-83
2021/04/22 00:24:28;;;;;;;4.57;4.18;;;;;;;0.63;95.58;93092.53;2080852;28;20021;-83
2021/04/22 00:25:29;;;;;;;4.72;3.65;;;;;;;0.68;96.18;93097.50;2072609;28;20022;-83
2021/04/22 00:26:29;;;;;;;4.10;3.80;;;;;;;0.69;95.94;93098.25;2079450;28;20040;-83
2021/04/22 00:27:30;;;;;;;4.45;4.07;;;;;;;0.65;96.02;93094.81;2084506;28;20044;-83
2021/04/22 00:28:30;;;;;;;4.30;3.90;;;;;;;0.62;95.60;93098.16;2087806;28;20056;-83
2021/04/22 00:29:31;;;;;;;4.50;4.10;;;;;;;0.70;95.81;93092.66;2088950;28;20029;-84
2021/04/22 00:30:33;;;;;;;4.00;3.70;;;;;;;0.71;95.92;93101.31;2073327;28;20033;-82
2021/04/22 00:31:33;;;;;;;4.57;4.18;;;;;;;0.66;95.85;93096.31;2073275;28;20493;-85
2021/04/22 00:32:34;;;;;;;4.07;3.75;;;;;;;0.66;95.75;93102.38;2066364;28;20026;-83
2021/04/22 00:33:34;;;;;;;4.38;4.03;;;;;;;0.60;95.45;93103.75;2073118;28;20026;-84
2021/04/22 00:34:35;;;;;;;4.47;4.07;;;;;;;0.62;95.52;93095.53;2081044;28;20030;-84
2021/04/22 00:35:36;;;;;;;3.92;3.63;;;;;;;0.59;95.55;93096.22;2080838;28;20037;-84
2021/04/22 00:36:37;;;;;;;4.28;3.60;;;;;;;0.54;95.86;93093.91;2071846;28;20116;-85
2021/04/22 00:37:38;;;;;;;4.60;4.15;;;;;;;0.61;96.49;93089.50;2071874;28;20030;-84
2021/04/22 00:38:39;;;;;;;4.07;3.78;;;;;;;0.52;95.67;93102.13;2081082;28;20053;-84
2021/04/22 00:39:39;;;;;;;4.38;4.05;;;;;;;0.46;95.82;93101.66;2088308;28;20076;-84
2021/04/22 00:40:41;;;;;;;4.30;3.90;;;;;;;0.49;96.01;93100.22;2088979;28;20048;-83
2021/04/22 00:41:41;;;;;;;4.10;3.70;;;;;;;0.52;95.46;93101.38;2081222;28;20025;-85
2021/04/22 00:42:42;;;;;;;4.68;4.00;;;;;;;0.52;95.98;93107.38;2070938;28;20052;-84
2021/04/22 00:43:43;;;;;;;4.30;3.90;;;;;;;0.55;96.43;93104.06;2079031;28;20033;-84
2021/04/22 00:44:47;;;;;;;4.90;3.78;;;;;;;0.46;96.61;93104.31;2073114;28;20057;-84
2021/04/22 00:45:49;;;;;;;4.63;4.22;;;;;;;0.46;96.47;93106.19;2065547;28;20036;-84
2021/04/22 00:46:50;;;;;;;4.63;4.22;;;;;;;0.52;96.79;93106.63;2071247;28;20064;-84
2021/04/22 00:47:50;;;;;;;4.22;3.83;;;;;;;0.45;95.87;93108.03;2081211;28;20474;-84
2021/04/22 00:48:51;;;;;;;4.18;3.88;;;;;;;0.46;95.51;93103.53;2081104;28;20025;-84
2021/04/22 00:49:51;;;;;;;4.72;4.35;;;;;;;0.48;96.17;93102.09;2095727;28;20286;-84
2021/04/22 00:50:52;;;;;;;4.75;4.35;;;;;;;0.40;96.46;93103.09;2101535;28;20127;-84
2021/04/22 00:51:53;;;;;;;4.78;4.38;;;;;;;0.39;96.94;93104.19;2097679;28;20071;-83
2021/04/22 00:52:56;;;;;;;5.03;4.53;;;;;;;0.42;97.08;93103.47;2090667;28;20028;-85
2021/04/22 00:53:57;;;;;;;4.95;4.15;;;;;;;0.42;96.69;93100.84;2076474;28;20036;-83
2021/04/22 00:54:58;;;;;;;4.32;3.97;;;;;;;0.48;96.62;93107.34;2072914;28;20033;-84
2021/04/22 00:55:59;;;;;;;4.43;4.03;;;;;;;0.48;97.51;93101.31;2072529;28;20418;-84
2021/04/22 00:56:59;;;;;;;4.97;4.47;;;;;;;0.48;97.69;93104.72;2072854;28;20037;-84
2021/04/22 00:58:00;;;;;;;5.07;4.68;;;;;;;0.48;98.47;93099.47;2088463;28;20413;-84
2021/04/22 00:59:01;;;;;;;4.93;3.78;;;;;;;0.49;98.30;93105.47;2097426;28;20032;-83
2021/04/22 01:00:06;;;;;;;4.93;4.53;;;;;;;0.47;99.04;93108.44;2097486;28;20032;-83
2021/04/22 01:01:06;;;;;;;4.68;4.28;;;;;;;0.43;98.22;93105.00;2081306;28;20025;-83
2021/04/22 01:02:25;;;;;;;5.78;4.80;;;;;;;0.46;97.82;93109.56;2080813;28;20100;-83
2021/04/22 01:03:27;;;;;;;4.53;4.13;;;;;;;0.45;97.71;93102.78;2080107;28;20045;-84
2021/04/22 01:04:27;;;;;;;4.80;4.30;;;;;;;0.42;96.98;93105.34;2080889;28;20032;-83
2021/04/22 01:05:42;;;;;;;5.38;4.70;;;;;;;0.42;96.55;93113.25;2064748;28;20022;-84
2021/04/22 01:06:45;;;;;;;5.32;4.40;;;;;;;0.41;96.80;93101.97;2071456;28;20173;-83
2021/04/22 01:07:46;;;;;;;4.63;4.25;;;;;;;0.43;97.72;93101.59;2072731;28;20120;-83
2021/04/22 01:08:46;;;;;;;4.88;4.47;;;;;;;0.47;97.76;93110.31;2080766;28;20025;-83
2021/04/22 01:09:47;;;;;;;5.22;4.72;;;;;;;0.46;98.87;93103.53;2080542;28;20037;-84
2021/04/22 01:10:47;;;;;;;4.93;4.53;;;;;;;0.40;98.20;93107.59;2080232;28;20083;-84
2021/04/22 01:11:48;;;;;;;4.95;4.55;;;;;;;0.42;97.94;93111.38;2089048;28;20039;-84
2021/04/22 01:12:49;;;;;;;4.63;4.22;;;;;;;0.46;97.43;93106.94;2096456;28;20123;-83
2021/04/22 01:13:49;;;;;;;4.82;4.43;;;;;;;0.41;97.77;93109.09;2083755;28;20026;-84
2021/04/22 01:14:50;;;;;;;4.95;4.55;;;;;;;0.40;97.30;93108.34;2072722;28;20470;-84
2021/04/22 01:15:51;;;;;;;4.32;3.92;;;;;;;0.42;97.22;93108.75;2072885;28;20038;-83
2021/04/22 01:16:51;;;;;;;4.88;4.47;;;;;;;0.32;96.51;93106.72;2084315;28;20017;-83
2021/04/22 01:17:52;;;;;;;5.93;4.70;;;;;;;0.33;97.12;93105.59;2079541;28;20037;-84
2021/04/22 01:18:53;;;;;;;5.15;4.65;;;;;;;0.35;96.70;93113.13;2087610;28;20508;-83
2021/04/22 01:19:54;;;;;;;4.55;4.15;;;;;;;0.33;97.23;93102.97;2077654;28;20033;-83
2021/04/22 01:20:54;;;;;;;4.80;4.40;;;;;;;0.27;97.63;93101.00;2068231;28;20174;-84
2021/04/22 01:21:55;;;;;;;5.22;4.60;;;;;;;0.29;97.88;93109.28;2071384;28;20026;-84
2021/04/22 01:22:57;;;;;;;5.07;4.38;;;;;;;0.31;97.93;93107.81;2080730;28;20406;-83
2021/04/22 01:23:57;;;;;;;4.53;4.07;;;;;;;0.29;97.66;93099.50;2080126;28;20099;-84
2021/04/22 01:24:58;;;;;;;4.88;4.47;;;;;;;0.32;97.63;93105.94;2071473;28;20124;-83
2021/04/22 01:25:59;;;;;;;5.18;4.70;;;;;;;0.27;97.07;93109.63;2077336;28;20497;-83
2021/04/22 01:26:59;;;;;;;4.40;4.00;;;;;;;0.18;96.88;93109.09;2079840;28;20124;-83
2021/04/22 01:28:01;;;;;;;5.10;4.60;;;;;;;0.27;96.72;93114.13;2087190;28;20071;-82
2021/04/22 01:29:04;;;;;;;4.38;4.00;;;;;;;0.23;96.45;93116.69;2080695;28;20093;-84
2021/04/22 01:30:08;;;;;;;4.55;4.15;;;;;;;0.30;96.62;93118.66;2072957;28;20026;-84
2021/04/22 01:31:08;;;;;;;5.13;4.63;;;;;;;0.32;97.19;93111.97;2075421;28;20030;-83
2021/04/22 01:32:09;;;;;;;5.35;4.45;;;;;;;0.29;97.57;93109.28;2080722;28;20033;-83
2021/04/22 01:33:11;;;;;;;4.90;4.50;;;;;;;0.28;97.66;93119.03;2079828;28;20485;-83
2021/04/22 01:34:12;;;;;;;5.20;4.70;;;;;;;0.29;97.61;93107.41;2078046;28;20524;-83
2021/04/22 01:35:17;;;;;;;5.25;4.75;;;;;;;0.25;96.63;93103.94;2080831;28;20033;-83
2021/04/22 01:36:17;;;;;;;5.28;4.47;;;;;;;0.25;97.77;93106.59;2081074;28;20036;-82
2021/04/22 01:37:18;;;;;;;4.57;4.18;;;;;;;0.24;97.59;93113.72;2092126;28;20048;-83
2021/04/22 01:38:19;;;;;;;5.30;4.80;;;;;;;0.24;97.74;93112.97;2097403;28;20081;-82
2021/04/22 01:39:20;;;;;;;4.95;4.45;;;;;;;0.26;97.86;93105.47;2080685;28;20083;-84
2021/04/22 01:40:21;;;;;;;5.78;5.28;;;;;;;0.28;97.92;93108.53;2080680;28;20089;-83
2021/04/22 01:41:21;;;;;;;5.25;4.75;;;;;;;0.19;96.81;93115.88;2072516;28;20033;-83
2021/04/22 01:42:22;;;;;;;6.10;4.82;;;;;;;0.22;97.16;93113.31;2080296;28;20034;-83
2021/04/22 01:43:22;;;;;;;5.82;5.20;;;;;;;0.28;97.89;93113.03;2078623;28;20029;-81
2021/04/22 01:44:23;;;;;;;5.03;4.63;;;;;;;0.28;98.86;93128.78;2088747;28;20139;-83
2021/04/22 01:45:23;;;;;;;6.15;5.55;;;;;;;0.23;99.24;93114.06;2097222;28;20102;-83
2021/04/22 01:46:24;;;;;;;4.97;4.45;;;;;;;0.23;98.63;93119.31;2072875;28;20057;-84
2021/04/22 01:47:24;;;;;;;5.70;5.20;;;;;;;0.29;98.79;93117.91;2079555;28;20043;-83
2021/04/22 01:48:29;;;;;;;5.45;4.95;;;;;;;0.33;98.61;93117.97;2080366;28;20033;-83
2021/04/22 01:49:30;;;;;;;5.35;4.85;;;;;;;0.31;98.52;93107.81;2088724;28;20090;-84
2021/04/22 01:50:32;;;;;;;5.47;4.88;;;;;;;0.35;99.14;93113.91;2069659;28;20033;-84
2021/04/22 01:51:33;;;;;;;5.45;4.95;;;;;;;0.36;98.75;93114.66;2082608;28;20068;-83
2021/04/22 01:52:33;;;;;;;5.28;4.68;;;;;;;0.36;99.27;93115.41;2082337;28;20026;-84
2021/04/22 01:53:34;;;;;;;6.22;5.15;;;;;;;0.37;98.89;93114.28;2072475;28;20382;-84
2021/04/22 01:54:34;;;;;;;6.43;4.80;;;;;;;0.38;98.95;93121.06;2071819;28;20473;-84
2021/04/22 01:55:38;;;;;;;5.57;4.95;;;;;;;0.41;98.89;93111.72;2080232;28;20033;-83
2021/04/22 01:56:38;;;;;;;5.18;4.70;;;;;;;0.32;98.32;93116.47;2089206;28;20021;-84
2021/04/22 01:57:39;;;;;;;5.53;4.70;;;;;;;0.32;98.05;93111.97;2080662;28;20080;-82
2021/04/22 01:58:40;;;;;;;5.57;5.07;;;;;;;0.31;98.66;93112.28;2080665;28;20048;-85
2021/04/22 01:59:41;;;;;;;5.40;4.90;;;;;;;0.29;99.22;93115.28;2088811;28;20493;-82
2021/04/22 02:00:45;;;;;;;5.93;5.43;;;;;;;0.41;98.99;93123.00;2080797;28;20037;-83
2021/04/22 02:01:45;;;;;;;5.70;5.20;;;;;;;0.47;98.52;93116.31;2089257;28;20035;-83
2021/04/22 02:02:46;;;;;;;5.50;5.00;;;;;;;0.35;98.01;93111.28;2101345;28;20122;-83
2021/04/22 02:03:46;;;;;;;5.72;4.85;;;;;;;0.37;98.06;93113.53;2096607;28;20055;-85
2021/04/22 02:04:47;;;;;;;5.68;4.88;;;;;;;0.32;97.78;93111.97;2080358;28;20108;-84
2021/04/22 02:05:47;;;;;;;5.40;4.90;;;;;;;0.30;98.12;93108.16;2084972;28;20080;-83
2021/04/22 02:06:48;;;;;;;5.50;5.00;;;;;;;0.32;98.55;93119.84;2087463;28;20040;-85
2021/04/22 02:07:49;;;;;;;6.22;5.63;;;;;;;0.30;98.67;93116.81;2070928;28;20030;-83
2021/04/22 02:08:50;;;;;;;6.60;5.57;;;;;;;0.30;98.33;93106.28;2072334;28;20080;-84
2021/04/22 02:09:50;;;;;;;6.03;5.43;;;;;;;0.29;98.90;93114.53;2083560;28;20108;-84
2021/04/22 02:10:51;;;;;;;6.40;5.90;;;;;;;0.31;98.69;93120.19;2080748;28;20063;-82
2021/04/22 02:11:52;;;;;;;6.35;5.13;;;;;;;0.31;98.16;93126.22;2066265;28;20518;-82
2021/04/22 02:12:52;;;;;;;6.18;5.60;;;;;;;0.32;98.47;93117.22;2087190;28;20037;-83
2021/04/22 02:13:53;;;;;;;6.20;5.60;;;;;;;0.32;98.33;93113.84;2084931;28;20090;-84
2021/04/22 02:14:53;;;;;;;5.35;4.95;;;;;;;0.32;98.66;93119.09;2068949;28;20120;-83
2021/04/22 02:15:54;;;;;;;6.07;5.57;;;;;;;0.27;98.47;93116.75;2088742;28;20033;-83
2021/04/22 02:16:55;;;;;;;6.70;5.80;;;;;;;0.42;98.64;93119.25;2104355;28;20055;-83
2021/04/22 02:17:56;;;;;;;6.45;5.40;;;;;;;0.39;98.49;93122.59;2096368;28;20125;-84
2021/04/22 02:18:57;;;;;;;6.00;5.38;;;;;;;0.39;99.35;93124.44;2087665;28;20091;-85
2021/04/22 02:19:57;;;;;;;5.88;5.28;;;;;;;0.39;98.75;93119.19;2081683;28;20029;-85
2021/04/22 02:20:58;;;;;;;6.25;5.65;;;;;;;0.42;98.99;93126.38;2077277;28;20091;-88
2021/04/22 02:21:58;;;;;;;6.13;5.63;;;;;;;0.46;98.75;93127.97;2079524;28;20474;-85
2021/04/22 02:22:59;;;;;;;5.90;5.30;;;;;;;0.35;97.75;93134.16;2085073;28;20040;-83
2021/04/22 02:23:59;;;;;;;5.95;5.45;;;;;;;0.32;97.86;93130.38;2079157;28;20111;-84
2021/04/22 02:25:00;;;;;;;6.20;5.63;;;;;;;0.37;98.09;93131.94;2080005;28;20033;-86
2021/04/22 02:26:00;;;;;;;6.43;5.82;;;;;;;0.36;98.66;93138.31;2080346;28;20026;-84
2021/04/22 02:27:01;;;;;;;7.07;6.38;;;;;;;0.30;98.83;93124.69;2088718;28;20068;-83
2021/04/22 02:28:01;;;;;;;6.35;5.75;;;;;;;0.32;98.94;93135.63;2080432;28;20037;-84
2021/04/22 02:29:02;;;;;;;6.15;5.53;;;;;;;0.29;99.04;93136.31;2073672;28;20030;-84
2021/04/22 02:30:16;;;;;;;6.28;5.68;;;;;;;0.29;99.00;93131.06;2072253;28;20041;-84
2021/04/22 02:31:17;;;;;;;6.25;5.65;;;;;;;0.28;99.26;93129.53;2081666;28;20030;-84
2021/04/22 02:32:17;;;;;;;6.82;6.13;;;;;;;0.27;99.00;93127.28;2080090;28;20033;-83
2021/04/22 02:33:19;;;;;;;6.32;5.68;;;;;;;0.24;98.94;93116.34;2080296;28;20026;-84
2021/04/22 02:34:19;;;;;;;6.38;5.75;;;;;;;0.28;99.24;93118.28;2087545;28;20052;-82
2021/04/22 02:35:25;;;;;;;6.50;5.85;;;;;;;0.24;99.29;93120.84;2096401;28;20044;-82
2021/04/22 02:36:25;;;;;;;7.20;6.32;;;;;;;0.24;99.00;93113.72;2097324;28;20561;-84
2021/04/22 02:37:26;;;;;;;8.10;5.65;;;;;;;0.18;98.73;93114.38;2096782;28;20028;-83
2021/04/22 02:38:26;;;;;;;6.05;5.53;;;;;;;0.19;98.66;93110.63;2079922;28;20456;-82
2021/04/22 02:39:27;;;;;;;6.28;5.68;;;;;;;0.22;98.67;93118.56;2070888;28;20112;-83
2021/04/22 02:40:29;;;;;;;6.30;5.70;;;;;;;0.22;98.13;93109.91;2070566;28;20068;-83
2021/04/22 02:41:30;;;;;;;7.45;6.53;;;;;;;0.22;98.10;93120.41;2087398;28;20084;-82
2021/04/22 02:42:30;;;;;;;7.20;5.90;;;;;;;0.05;97.53;93111.13;2082532;28;20052;-84
2021/04/22 02:43:31;;;;;;;6.57;5.88;;;;;;;0.07;97.54;93113.41;2088361;28;20051;-84
2021/04/22 02:44:31;;;;;;;6.32;5.65;;;;;;;0.01;97.14;93117.44;2085756;28;20465;-84
2021/04/22 02:45:35;;;;;;;5.95;5.40;;;;;;;0.05;97.15;93119.03;2080398;28;20091;-82
2021/04/22 02:46:35;;;;;;;8.02;6.47;;;;;;;0.06;98.21;93122.41;2075482;28;20033;-83
2021/04/22 02:47:36;;;;;;;6.38;5.72;;;;;;;0.06;98.88;93114.53;2070500;28;20477;-84
2021/04/22 02:48:37;;;;;;;6.57;5.88;;;;;;;0.06;99.35;93117.16;2088590;28;20132;-84
2021/04/22 02:49:37;;;;;;;6.57;5.90;;;;;;;0.05;99.27;93111.13;2088423;28;20028;-84
2021/04/22 02:50:41;;;;;;;6.18;5.57;;;;;;;0.03;98.54;93120.47;2088570;28;20029;-84
2021/04/22 02:51:41;;;;;;;8.57;6.47;;;;;;;-0.03;98.79;93123.38;2083441;28;20501;-83
2021/04/22 02:52:42;;;;;;;7.10;6.05;;;;;;;-0.05;98.79;93125.59;2088445;28;20033;-84
2021/04/22 02:53:42;;;;;;;5.97;5.47;;;;;;;-0.03;98.30;93125.25;2078180;28;20088;-84
2021/04/22 02:54:43;;;;;;;7.10;6.40;;;;;;;-0.03;98.83;93131.28;2088049;28;20409;-84
2021/04/22 02:55:45;;;;;;;6.60;6.00;;;;;;;-0.05;98.79;93130.84;2080199;28;20058;-83
2021/04/22 02:56:45;;;;;;;7.80;5.82;;;;;;;-0.05;98.86;93130.09;2080463;28;20022;-83
2021/04/22 02:57:46;;;;;;;6.25;5.65;;;;;;;-0.04;98.54;93129.75;2091826;28;20488;-85
2021/04/22 02:58:46;;;;;;;6.63;6.03;;;;;;;-0.08;99.08;93126.31;2077206;28;20044;-84
2021/04/22 02:59:46;;;;;;;6.35;5.78;;;;;;;-0.08;98.88;93125.53;2089257;28;20175;-82
2021/04/22 03:00:48;;;;;;;9.07;5.70;;;;;;;-0.03;98.58;93136.53;2090042;28;20466;-84
2021/04/22 03:01:49;;;;;;;5.95;5.40;;;;;;;-0.03;98.37;93138.38;2082060;28;20025;-83
2021/04/22 03:02:49;;;;;;;6.45;5.85;;;;;;;-0.04;98.37;93140.25;2081925;28;20034;-82
2021/04/22 03:03:49;;;;;;;6.43;5.80;;;;;;;-0.11;97.99;93140.13;2081922;28;20125;-82
2021/04/22 03:04:50;;;;;;;7.13;6.43;;;;;;;-0.15;98.51;93143.78;2081634;28;20052;-83
2021/04/22 03:05:51;;;;;;;6.53;5.93;;;;;;;-0.11;98.74;93142.75;2090066;28;20025;-85
2021/04/22 03:06:52;;;;;;;6.82;6.13;;;;;;;-0.11;98.74;93134.88;2089021;28;20063;-85
2021/04/22 03:07:52;;;;;;;6.80;6.20;;;;;;;-0.11;98.43;93139.38;2081603;28;20025;-84
2021/04/22 03:08:52;;;;;;;8.52;6.57;;;;;;;-0.09;98.08;93139.75;2071965;28;20034;-83
2021/04/22 03:09:53;;;;;;;6.28;5.68;;;;;;;-0.17;97.76;93141.53;2081628;28;20117;-84
2021/04/22 03:10:54;;;;;;;7.80;6.97;;;;;;;-0.17;98.32;93138.91;2081943;28;20036;-84
2021/04/22 03:11:55;;;;;;;7.03;5.93;;;;;;;-0.16;98.82;93135.16;2073923;28;20061;-86
2021/04/22 03:12:56;;;;;;;6.82;6.22;;;;;;;-0.16;99.13;93143.03;2073823;28;20026;-85
2021/04/22 03:13:56;;;;;;;9.18;6.97;;;;;;;-0.19;98.68;93138.47;2074472;28;20033;-83
2021/04/22 03:14:57;;;;;;;7.10;6.15;;;;;;;-0.18;98.42;93139.97;2065737;28;20026;-85
2021/04/22 03:15:57;;;;;;;8.60;7.53;;;;;;;-0.10;100.00;93139.00;2070509;28;20049;-84
2021/04/22 03:16:57;;;;;;;7.47;6.45;;;;;;;-0.14;99.47;93150.56;2073797;28;20116;-86
2021/04/22 03:17:58;;;;;;;7.68;6.95;;;;;;;-0.14;99.16;93145.31;2065543;28;20031;-84
2021/04/22 03:18:59;;;;;;;7.38;6.47;;;;;;;-0.16;98.86;93145.66;2070478;28;20064;-84
2021/04/22 03:20:00;;;;;;;7.43;6.72;;;;;;;-0.16;98.76;93140.41;2065205;28;20497;-83
2021/04/22 03:21:01;;;;;;;8.05;6.93;;;;;;;-0.21;98.83;93148.56;2070533;28;20394;-83
2021/04/22 03:22:01;;;;;;;7.30;6.47;;;;;;;-0.14;99.19;93146.06;2080335;28;20076;-85
2021/04/22 03:23:03;;;;;;;7.38;6.68;;;;;;;-0.16;99.00;93145.66;2073903;28;20437;-84
2021/04/22 03:24:04;;;;;;;7.50;6.80;;;;;;;-0.18;98.85;93139.97;2073859;28;20033;-84
2021/04/22 03:25:07;;;;;;;7.30;6.60;;;;;;;-0.23;98.59;93150.78;2081857;28;20135;-85
2021/04/22 03:26:07;;;;;;;10.35;6.85;;;;;;;-0.28;98.45;93146.56;2073994;28;20030;-85
2021/04/22 03:27:09;;;;;;;11.48;6.82;;;;;;;-0.26;99.40;93148.84;2072514;28;20030;-85
2021/04/22 03:28:10;;;;;;;8.27;7.28;;;;;;;-0.23;99.85;93145.50;2073654;28;20030;-86
2021/04/22 03:29:10;;;;;;;8.20;6.70;;;;;;;-0.22;99.96;93143.66;2065400;28;20026;-84
2021/04/22 03:30:15;;;;;;;9.43;7.38;;;;;;;-0.20;99.77;93151.94;2073570;28;20506;-85
2021/04/22 03:31:15;;;;;;;7.07;6.38;;;;;;;-0.21;99.54;93151.19;2072336;28;20120;-83
2021/04/22 03:32:16;;;;;;;7.80;7.00;;;;;;;-0.22;99.15;93146.28;2065238;28;20395;-83
2021/04/22 03:33:16;;;;;;;11.50;7.82;;;;;;;-0.24;98.86;93148.50;2080173;28;20612;-83
2021/04/22 03:34:17;;;;;;;7.95;7.15;;;;;;;-0.32;99.07;93144.97;2089803;28;20029;-83
2021/04/22 03:35:18;;;;;;;7.07;6.47;;;;;;;-0.22;99.31;93146.28;2077472;28;20025;-85
2021/04/22 03:36:18;;;;;;;8.13;6.88;;;;;;;-0.21;98.68;93161.69;2063968;28;20080;-84
2021/04/22 03:37:19;;;;;;;8.77;7.88;;;;;;;-0.21;98.71;93147.81;2073579;28;20026;-83
2021/04/22 03:38:19;;;;;;;8.98;8.07;;;;;;;-0.21;98.51;93142.56;2081820;28;20029;-83
2021/04/22 03:39:20;;;;;;;7.60;6.85;;;;;;;-0.23;98.58;93153.41;2073230;28;20367;-83
2021/04/22 03:40:23;;;;;;;9.18;6.97;;;;;;;-0.27;98.65;93153.31;2073483;28;20042;-82
2021/04/22 03:41:23;;;;;;;7.80;6.72;;;;;;;-0.24;98.14;93151.88;2073609;28;20033;-84
2021/04/22 03:42:24;;;;;;;7.90;7.10;;;;;;;-0.23;97.91;93161.28;2065354;28;20076;-83
2021/04/22 03:43:24;;;;;;;7.72;6.93;;;;;;;-0.14;98.11;93158.44;2078873;28;20060;-83
2021/04/22 03:44:25;;;;;;;7.72;6.82;;;;;;;-0.18;97.77;93157.59;2081356;28;20514;-86
2021/04/22 03:45:25;;;;;;;7.93;7.13;;;;;;;-0.17;97.89;93159.91;2081418;28;20041;-83
2021/04/22 03:46:26;;;;;;;8.25;7.30;;;;;;;-0.15;97.53;93162.94;2089737;28;20386;-86
2021/04/22 03:47:27;;;;;;;10.45;8.52;;;;;;;-0.12;98.10;93158.88;2085846;28;20052;-87
2021/04/22 03:48:28;;;;;;;8.75;7.55;;;;;;;-0.12;98.26;93157.00;2074437;28;20028;-83
2021/04/22 03:49:28;;;;;;;9.60;7.47;;;;;;;-0.11;98.25;93155.88;2077375;28;20064;-87
2021/04/22 03:50:29;;;;;;;9.27;8.13;;;;;;;-0.08;97.95;93157.81;2072256;28;20449;-83
2021/04/22 03:51:29;;;;;;;10.48;7.10;;;;;;;-0.14;98.29;93156.56;2070663;28;20033;-83
2021/04/22 03:52:30;;;;;;;9.15;8.25;;;;;;;-0.10;98.52;93154.78;2065324;28;20062;-83
2021/04/22 03:53:30;;;;;;;9.32;8.13;;;;;;;-0.07;98.94;93155.97;2080919;28;20759;-84
2021/04/22 03:54:31;;;;;;;8.75;7.40;;;;;;;-0.02;98.55;93153.78;2071876;28;20030;-84
2021/04/22 03:55:31;;;;;;;9.05;8.15;;;;;;;-0.01;98.21;93162.44;2064885;28;20060;-83
2021/04/22 03:56:32;;;;;;;9.85;8.57;;;;;;;0.01;99.09;93151.59;2071305;28;20502;-83
2021/04/22 03:57:33;;;;;;;8.95;7.97;;;;;;;0.05;98.69;93155.81;2072603;28;20045;-85
2021/04/22 03:58:34;;;;;;;9.40;8.40;;;;;;;0.06;99.13;93154.69;2069034;28;20033;-86
2021/04/22 03:59:35;;;;;;;11.63;8.38;;;;;;;0.12;100.00;93155.16;2069142;28;20037;-86
2021/04/22 04:00:36;;;;;;;10.18;8.82;;;;;;;0.05;99.94;93157.69;2069441;28;20025;-85
2021/04/22 04:01:36;;;;;;;11.68;8.70;;;;;;;0.16;99.76;93163.88;2073387;28;20037;-85
2021/04/22 04:02:37;;;;;;;16.50;8.68;;;;;;;0.08;99.30;93156.97;2081413;28;20030;-84
2021/04/22 04:03:37;;;;;;;11.23;9.32;;;;;;;0.11;99.52;93162.28;2073286;28;20364;-84
2021/04/22 04:04:38;;;;;;;10.52;8.98;;;;;;;0.11;98.97;93154.41;2069541;28;20053;-87
2021/04/22 04:05:38;;;;;;;11.10;8.95;;;;;;;0.12;99.53;93155.91;2076936;28;20034;-83
2021/04/22 04:06:39;;;;;;;9.40;8.35;;;;;;;0.13;99.92;93161.94;2089701;28;20128;-86
2021/04/22 04:07:39;;;;;;;12.00;9.30;;;;;;;0.16;100.00;93164.63;2089568;28;20025;-86
2021/04/22 04:08:39;;;;;;;11.15;9.52;;;;;;;0.12;100.00;93163.81;2072945;28;20077;-86
2021/04/22 04:09:40;;;;;;;13.20;8.45;;;;;;;0.15;100.00;93162.34;2077737;28;20088;-85
2021/04/22 04:10:41;;;;;;;13.43;9.13;;;;;;;0.15;99.31;93159.72;2088989;28;20128;-85
2021/04/22 04:11:42;;;;;;;13.88;8.40;;;;;;;0.13;99.73;93154.84;2089726;28;20040;-84
2021/04/22 04:12:42;;;;;;;9.57;8.52;;;;;;;0.16;100.00;93158.63;2081309;28;20444;-83
2021/04/22 04:13:43;;;;;;;10.63;8.20;;;;;;;0.18;99.83;93159.03;2086434;28;20044;-84
2021/04/22 04:14:44;;;;;;;9.52;8.52;;;;;;;0.20;100.00;93159.44;2078175;28;20041;-84
2021/04/22 04:15:48;;;;;;;11.35;8.55;;;;;;;0.18;99.64;93162.44;2073448;28;20097;-83
2021/04/22 04:16:49;;;;;;;8.82;7.80;;;;;;;0.22;99.13;93159.84;2076962;28;20022;-84
2021/04/22 04:17:49;;;;;;;12.48;8.93;;;;;;;0.20;98.21;93164.69;2077150;28;20030;-83
2021/04/22 04:18:51;;;;;;;12.40;9.23;;;;;;;0.24;98.42;93160.28;2079212;28;20033;-84
2021/04/22 04:19:52;;;;;;;10.27;8.70;;;;;;;0.24;99.05;93160.28;2084776;28;20112;-84
2021/04/22 04:20:52;;;;;;;12.88;9.00;;;;;;;0.16;99.46;93159.38;2080707;28;20181;-82
2021/04/22 04:21:52;;;;;;;9.95;8.80;;;;;;;0.24;99.39;93168.16;2073095;28;20040;-83
2021/04/22 04:22:53;;;;;;;12.88;8.52;;;;;;;0.26;99.03;93155.41;2073061;28;20038;-86
2021/04/22 04:23:53;;;;;;;10.82;8.70;;;;;;;0.22;99.07;93158.00;2078184;28;20449;-84
2021/04/22 04:24:54;;;;;;;10.10;9.10;;;;;;;0.28;98.99;93155.06;2080274;28;20091;-83
2021/04/22 04:25:54;;;;;;;10.13;8.15;;;;;;;0.26;99.02;93158.03;2080331;28;20036;-83
2021/04/22 04:26:55;;;;;;;12.02;8.45;;;;;;;0.27;99.39;93159.56;2081373;28;20095;-85
2021/04/22 04:27:55;;;;;;;11.27;8.27;;;;;;;0.20;99.41;93156.81;2073454;28;20030;-84
2021/04/22 04:28:55;;;;;;;11.60;8.95;;;;;;;0.23;99.57;93161.38;2065075;28;20030;-84
2021/04/22 04:29:56;;;;;;;11.98;9.20;;;;;;;0.31;99.62;93155.16;2088127;28;20029;-83
2021/04/22 04:30:56;;;;;;;10.55;9.18;;;;;;;0.29;99.23;93165.22;2079294;28;20032;-85
2021/04/22 04:31:57;;;;;;;10.20;9.02;;;;;;;0.35;99.66;93155.97;2080951;28;20025;-84
2021/04/22 04:32:57;;;;;;;9.10;8.20;;;;;;;0.35;99.32;93161.22;2080735;28;20032;-84
2021/04/22 04:33:58;;;;;;;12.73;8.98;;;;;;;0.38;99.14;93162.38;2072530;28;20429;-83
2021/04/22 04:34:58;;;;;;;9.65;8.65;;;;;;;0.43;98.97;93160.22;2079600;28;20072;-84
2021/04/22 04:35:59;;;;;;;11.48;9.05;;;;;;;0.41;98.92;93164.31;2093282;28;20099;-84
2021/04/22 04:37:02;;;;;;;9.32;8.38;;;;;;;0.46;99.10;93164.03;2094506;28;20091;-83
2021/04/22 04:38:04;;;;;;;10.60;8.77;;;;;;;0.46;99.89;93158.75;2088557;28;20033;-84
2021/04/22 04:39:04;;;;;;;11.30;8.85;;;;;;;0.45;99.41;93170.41;2088186;28;20032;-83
2021/04/22 04:40:06;;;;;;;10.65;9.05;;;;;;;0.54;99.22;93175.44;2078620;28;20033;-84
2021/04/22 04:41:07;;;;;;;10.05;8.38;;;;;;;0.57;99.24;93170.22;2079605;28;20063;-83
2021/04/22 04:42:08;;;;;;;10.00;8.55;;;;;;;0.61;99.15;93162.38;2080094;28;20092;-84
2021/04/22 04:43:08;;;;;;;12.55;9.02;;;;;;;0.63;99.12;93170.69;2074843;28;20046;-84
2021/04/22 04:44:10;;;;;;;12.27;8.40;;;;;;;0.66;99.19;93162.88;2072644;28;20029;-84
2021/04/22 04:45:13;;;;;;;10.65;9.02;;;;;;;0.64;99.00;93161.69;2080945;28;20029;-83
2021/04/22 04:46:17;;;;;;;10.13;9.05;;;;;;;0.68;98.64;93170.38;2080857;28;20120;-84
2021/04/22 04:47:18;;;;;;;14.38;9.07;;;;;;;0.70;99.13;93166.31;2089707;28;20074;-85
2021/04/22 04:48:18;;;;;;;12.20;8.25;;;;;;;0.72;99.61;93171.97;2090866;28;20024;-84
2021/04/22 04:49:19;;;;;;;12.30;8.85;;;;;;;0.78;99.88;93164.53;2081102;28;20069;-84
2021/04/22 04:50:20;;;;;;;10.75;8.88;;;;;;;0.82;100.00;93167.22;2080984;28;20029;-84